createdAt,value
2023-03-15T00:00:44.886Z,3.00
2023-03-15T00:03:14.728Z,3.53
2023-03-15T00:05:43.007Z,2.97
2023-03-15T00:08:12.160Z,3.13
2023-03-15T00:10:41.146Z,3.00
2023-03-15T00:13:08.757Z,3.43
2023-03-15T00:15:36.158Z,3.30
2023-03-15T00:18:04.136Z,2.90
2023-03-15T00:20:33.973Z,2.50
2023-03-15T00:23:01.395Z,2.67
2023-03-15T00:25:29.079Z,2.60
2023-03-15T00:27:56.659Z,2.77
2023-03-15T00:30:24.110Z,2.70
2023-03-15T00:32:53.857Z,2.63
2023-03-15T00:35:21.811Z,2.50
2023-03-15T00:37:50.640Z,2.43
2023-03-15T00:40:18.337Z,3.00
2023-03-15T00:42:50.002Z,2.80
2023-03-15T00:45:17.787Z,2.60
2023-03-15T00:47:45.377Z,2.57
2023-03-15T00:50:12.834Z,2.37
2023-03-15T00:52:41.975Z,2.60
2023-03-15T00:55:14.066Z,2.50
2023-03-15T00:57:42.380Z,3.10
2023-03-15T01:00:12.264Z,2.57
2023-03-15T01:02:39.983Z,2.80
2023-03-15T01:05:08.458Z,2.77
2023-03-15T01:07:36.254Z,3.40
2023-03-15T01:10:04.678Z,2.43
2023-03-15T01:12:34.088Z,2.40
2023-03-15T01:15:02.010Z,3.00
2023-03-15T01:17:29.482Z,2.93
2023-03-15T01:19:56.886Z,2.77
2023-03-15T01:22:24.333Z,2.70
2023-03-15T01:24:52.261Z,2.57
2023-03-15T01:27:19.784Z,3.30
2023-03-15T01:29:48.565Z,3.20
2023-03-15T01:32:16.049Z,3.80
2023-03-15T01:34:43.813Z,2.83
2023-03-15T01:37:14.482Z,3.20
2023-03-15T01:39:42.538Z,3.83
2023-03-15T01:42:10.048Z,3.80
2023-03-15T01:44:52.595Z,4.13
2023-03-15T01:47:20.194Z,4.00
2023-03-15T01:49:49.447Z,3.93
2023-03-15T01:52:18.782Z,4.60
2023-03-15T01:54:48.080Z,4.47
2023-03-15T01:57:17.526Z,4.90
2023-03-15T01:59:46.475Z,4.90
2023-03-15T02:02:15.587Z,5.07
2023-03-15T02:04:46.579Z,4.77
2023-03-15T02:07:15.850Z,5.47
2023-03-15T02:09:45.360Z,4.13
2023-03-15T02:12:12.974Z,5.40
2023-03-15T02:14:41.972Z,4.23
2023-03-15T02:17:09.474Z,4.33
2023-03-15T02:19:43.021Z,4.93
2023-03-15T02:22:17.258Z,4.40
2023-03-15T02:24:50.001Z,4.10
2023-03-15T02:27:23.362Z,4.70
2023-03-15T02:29:50.943Z,4.33
2023-03-15T02:32:18.372Z,4.60
2023-03-15T02:34:45.746Z,4.07
2023-03-15T02:37:13.153Z,4.20
2023-03-15T02:39:40.584Z,3.83
2023-03-15T02:42:08.419Z,3.20
2023-03-15T02:44:38.290Z,3.43
2023-03-15T02:47:06.629Z,3.00
2023-03-15T02:49:40.509Z,2.60
2023-03-15T02:52:08.325Z,2.67
2023-03-15T02:54:36.458Z,2.40
2023-03-15T02:57:03.968Z,2.90
2023-03-15T02:59:31.371Z,2.50
2023-03-15T03:02:00.572Z,2.10
2023-03-15T03:04:28.078Z,2.50
2023-03-15T03:06:55.487Z,2.13
2023-03-15T03:09:23.607Z,2.10
2023-03-15T03:11:51.221Z,1.80
2023-03-15T03:14:18.626Z,1.90
2023-03-15T03:16:46.306Z,1.93
2023-03-15T03:19:15.128Z,2.43
2023-03-15T03:21:43.902Z,2.17
2023-03-15T03:24:11.519Z,2.50
2023-03-15T03:26:39.020Z,2.13
2023-03-15T03:29:06.636Z,2.20
2023-03-15T03:31:34.474Z,2.57
2023-03-15T03:34:01.891Z,2.23
2023-03-15T03:36:30.630Z,2.33
2023-03-15T03:38:58.116Z,2.80
2023-03-15T03:41:26.280Z,2.60
2023-03-15T03:43:53.756Z,2.63
2023-03-15T03:46:21.277Z,2.63
2023-03-15T03:48:48.742Z,2.87
2023-03-15T03:51:16.178Z,3.33
2023-03-15T03:53:44.928Z,2.80
2023-03-15T03:56:12.373Z,3.20
2023-03-15T03:58:39.784Z,2.97
2023-03-15T04:01:07.246Z,3.67
2023-03-15T04:03:34.625Z,3.93
2023-03-15T04:06:02.058Z,4.20
2023-03-15T04:08:29.530Z,4.40
2023-03-15T04:10:58.648Z,4.40
2023-03-15T04:13:26.352Z,4.60
2023-03-15T04:15:57.811Z,4.57
2023-03-15T04:18:25.743Z,5.00
2023-03-15T04:20:54.780Z,5.50
2023-03-15T04:23:22.793Z,5.20
2023-03-15T04:25:50.886Z,4.80
2023-03-15T04:28:20.221Z,5.00
2023-03-15T04:30:48.849Z,5.20
2023-03-15T04:33:16.338Z,5.23
2023-03-15T04:35:43.825Z,5.53
2023-03-15T04:38:11.505Z,4.97
2023-03-15T04:40:39.041Z,5.27
2023-03-15T04:43:06.560Z,5.20
2023-03-15T04:45:35.357Z,4.77
2023-03-15T04:48:03.200Z,4.93
2023-03-15T04:50:31.365Z,5.50
2023-03-15T04:52:59.046Z,5.03
2023-03-15T04:55:26.579Z,5.23
2023-03-15T04:57:53.976Z,5.10
2023-03-15T05:00:21.663Z,5.20
2023-03-15T05:02:54.785Z,5.10
2023-03-15T05:05:23.139Z,5.30
2023-03-15T05:07:50.634Z,5.10
2023-03-15T05:10:18.467Z,5.87
2023-03-15T05:12:45.870Z,5.23
2023-03-15T05:15:13.870Z,5.50
2023-03-15T05:17:41.346Z,5.33
2023-03-15T05:20:12.006Z,4.97
2023-03-15T05:22:39.443Z,4.70
2023-03-15T05:25:07.791Z,4.30
2023-03-15T05:27:35.228Z,5.07
2023-03-15T05:30:04.128Z,5.10
2023-03-15T05:32:34.651Z,5.60
2023-03-15T05:35:02.561Z,5.40
2023-03-15T05:37:32.419Z,5.57
2023-03-15T05:40:00.222Z,5.27
2023-03-15T05:42:27.909Z,5.50
2023-03-15T05:44:55.725Z,5.30
2023-03-15T05:47:23.490Z,5.57
2023-03-15T05:49:50.978Z,4.90
2023-03-15T05:52:18.402Z,6.43
2023-03-15T05:54:47.237Z,5.83
2023-03-15T05:57:14.672Z,6.47
2023-03-15T05:59:42.167Z,6.10
2023-03-15T06:02:09.582Z,6.97
2023-03-15T06:04:38.102Z,6.73
2023-03-15T06:07:05.708Z,6.50
2023-03-15T06:09:33.371Z,7.13
2023-03-15T06:12:02.519Z,6.83
2023-03-15T06:14:30.233Z,7.27
2023-03-15T06:16:57.839Z,7.60
2023-03-15T06:19:25.336Z,7.70
2023-03-15T06:21:52.763Z,7.23
2023-03-15T06:24:20.422Z,7.20
2023-03-15T06:26:47.865Z,6.80
2023-03-15T06:29:17.216Z,6.80
2023-03-15T06:31:44.637Z,5.70
2023-03-15T06:34:12.124Z,6.20
2023-03-15T06:36:39.543Z,6.77
2023-03-15T06:39:07.022Z,6.60
2023-03-15T06:41:34.420Z,6.30
2023-03-15T06:44:01.921Z,6.23
2023-03-15T06:46:30.820Z,6.70
2023-03-15T06:48:58.359Z,6.50
2023-03-15T06:51:25.989Z,6.73
2023-03-15T06:53:53.568Z,7.17
2023-03-15T06:56:21.006Z,7.03
2023-03-15T06:58:48.425Z,7.30
2023-03-15T07:01:16.290Z,7.83
2023-03-15T07:03:45.141Z,8.00
2023-03-15T07:06:12.569Z,8.40
2023-03-15T07:08:40.013Z,7.67
2023-03-15T07:11:07.540Z,8.00
2023-03-15T07:13:35.051Z,8.60
2023-03-15T07:16:02.604Z,8.60
2023-03-15T07:18:30.038Z,8.20
2023-03-15T07:20:59.451Z,9.27
2023-03-15T07:23:27.218Z,8.70
2023-03-15T07:25:55.758Z,9.10
2023-03-15T07:28:23.932Z,10.50
2023-03-15T07:30:55.359Z,8.60
2023-03-15T07:33:23.520Z,9.00
2023-03-15T07:35:51.305Z,9.43
2023-03-15T07:38:20.957Z,9.13
2023-03-15T07:40:48.418Z,8.40
2023-03-15T07:43:15.875Z,9.13
2023-03-15T07:45:43.701Z,8.80
2023-03-15T07:48:11.285Z,8.20
2023-03-15T07:50:38.965Z,8.90
2023-03-15T07:53:06.485Z,8.83
2023-03-15T07:55:35.811Z,8.03
2023-03-15T07:58:03.625Z,8.30
2023-03-15T08:00:31.129Z,7.60
2023-03-15T08:02:58.691Z,8.37
2023-03-15T08:05:28.940Z,8.20
2023-03-15T08:07:56.730Z,8.10
2023-03-15T08:10:24.498Z,7.70
2023-03-15T08:12:53.332Z,7.30
2023-03-15T08:15:20.938Z,8.07
2023-03-15T08:17:48.498Z,8.40
2023-03-15T08:20:17.666Z,7.63
2023-03-15T08:22:46.060Z,8.10
2023-03-15T08:25:15.271Z,8.43
2023-03-15T08:27:43.185Z,7.80
2023-03-15T08:30:13.450Z,8.33
2023-03-15T08:32:41.002Z,8.40
2023-03-15T08:35:09.112Z,7.90
2023-03-15T08:37:36.606Z,8.10
2023-03-15T08:40:08.189Z,7.67
2023-03-15T08:42:35.753Z,8.23
2023-03-15T08:45:03.178Z,7.50
2023-03-15T08:47:31.960Z,8.17
2023-03-15T08:49:59.496Z,8.30
2023-03-15T08:52:27.222Z,8.60
2023-03-15T08:54:54.625Z,8.50
2023-03-15T08:57:25.995Z,8.33
2023-03-15T08:59:53.970Z,8.77
2023-03-15T09:02:22.473Z,8.47
2023-03-15T09:04:53.356Z,8.20
2023-03-15T09:07:21.793Z,8.37
2023-03-15T09:09:49.467Z,8.40
2023-03-15T09:12:17.245Z,9.30
2023-03-15T09:14:45.107Z,8.53
2023-03-15T09:17:12.623Z,7.53
2023-03-15T09:19:40.338Z,7.50
2023-03-15T09:22:23.311Z,7.87
2023-03-15T09:24:52.546Z,7.33
2023-03-15T09:27:20.314Z,7.63
2023-03-15T09:29:47.737Z,7.10
2023-03-15T09:32:15.160Z,7.20
2023-03-15T09:34:42.682Z,6.57
2023-03-15T09:37:11.645Z,6.57
2023-03-15T09:39:41.222Z,5.97
2023-03-15T09:42:11.928Z,6.07
2023-03-15T09:44:44.476Z,6.10
2023-03-15T09:47:25.957Z,6.10
2023-03-15T09:49:54.691Z,6.20
2023-03-15T09:52:27.982Z,5.27
2023-03-15T09:54:57.871Z,5.23
2023-03-15T09:57:29.110Z,5.50
2023-03-15T09:59:57.593Z,6.13
2023-03-15T10:02:26.227Z,5.37
2023-03-15T10:04:56.884Z,4.90
2023-03-15T10:07:26.193Z,5.50
2023-03-15T10:09:53.696Z,4.83
2023-03-15T10:12:24.725Z,5.13
2023-03-15T10:15:02.114Z,5.60
2023-03-15T10:17:34.100Z,5.27
2023-03-15T10:20:05.997Z,4.70
2023-03-15T10:22:40.732Z,4.60
2023-03-15T10:25:13.986Z,4.40
2023-03-15T10:27:43.612Z,3.87
2023-03-15T10:30:16.184Z,4.40
2023-03-15T10:32:45.110Z,4.70
2023-03-15T10:35:15.217Z,4.00
2023-03-15T10:37:44.459Z,3.73
2023-03-15T10:40:16.168Z,3.77
2023-03-15T10:42:44.478Z,3.73
2023-03-15T10:45:21.615Z,3.53
2023-03-15T10:47:57.500Z,3.40
2023-03-15T10:50:28.125Z,3.90
2023-03-15T10:52:57.532Z,3.70
2023-03-15T10:55:31.245Z,3.60
2023-03-15T10:58:00.162Z,4.10
2023-03-15T11:00:29.964Z,4.23
2023-03-15T11:03:04.732Z,4.00
2023-03-15T11:05:33.257Z,4.20
2023-03-15T11:08:02.122Z,3.20
2023-03-15T11:10:30.632Z,3.10
2023-03-15T11:13:10.377Z,3.37
2023-03-15T11:15:37.858Z,2.57
2023-03-15T11:18:05.502Z,3.70
2023-03-15T11:20:35.633Z,3.83
2023-03-15T11:23:07.235Z,3.63
2023-03-15T11:25:34.784Z,3.57
2023-03-15T11:28:02.312Z,3.00
2023-03-15T11:30:31.301Z,3.13
2023-03-15T11:33:02.381Z,3.30
2023-03-15T11:35:33.155Z,3.10
2023-03-15T11:38:14.589Z,3.80
2023-03-15T11:40:47.489Z,2.80
2023-03-15T11:43:18.619Z,3.07
2023-03-15T11:45:49.155Z,3.30
2023-03-15T11:48:19.202Z,3.03
2023-03-15T11:50:46.578Z,2.90
2023-03-15T11:53:14.903Z,2.80
2023-03-15T11:55:42.321Z,2.90
2023-03-15T11:58:30.318Z,4.33
2023-03-15T12:01:01.925Z,3.30
2023-03-15T12:03:35.253Z,3.00
2023-03-15T12:06:13.570Z,3.10
2023-03-15T12:08:42.243Z,2.60
2023-03-15T12:11:11.653Z,2.97
2023-03-15T12:13:51.567Z,3.10
2023-03-15T12:16:21.596Z,2.93
2023-03-15T12:18:49.146Z,2.53
2023-03-15T12:21:19.383Z,2.83
2023-03-15T12:23:49.633Z,3.00
2023-03-15T12:26:25.719Z,3.00
2023-03-15T12:29:04.012Z,2.97
2023-03-15T12:31:44.316Z,2.90
2023-03-15T12:34:15.886Z,2.53
2023-03-15T12:36:46.553Z,2.53
2023-03-15T12:39:22.170Z,2.60
2023-03-15T12:41:50.666Z,2.60
2023-03-15T12:44:26.638Z,2.07
2023-03-15T12:46:55.041Z,1.97
2023-03-15T12:49:32.998Z,2.10
2023-03-15T12:52:01.354Z,2.00
2023-03-15T12:54:32.815Z,1.97
2023-03-15T12:57:00.895Z,2.00
2023-03-15T12:59:32.296Z,2.50
2023-03-15T13:02:01.268Z,1.83
2023-03-15T13:04:29.251Z,1.80
2023-03-15T13:06:59.532Z,1.70
2023-03-15T13:09:39.354Z,1.80
2023-03-15T13:12:10.597Z,2.27
2023-03-15T13:14:43.056Z,1.60
2023-03-15T13:17:18.090Z,1.97
2023-03-15T13:19:47.100Z,1.50
2023-03-15T13:22:18.416Z,1.83
2023-03-15T13:24:50.360Z,1.60
2023-03-15T13:27:25.298Z,2.07
2023-03-15T13:29:54.078Z,1.67
2023-03-15T13:32:23.679Z,1.70
2023-03-15T13:34:51.204Z,1.73
2023-03-15T13:37:22.056Z,2.07
2023-03-15T13:39:56.953Z,1.70
2023-03-15T13:42:25.109Z,1.70
2023-03-15T13:45:07.480Z,2.00
2023-03-15T13:47:36.301Z,1.80
2023-03-15T13:50:04.385Z,2.20
2023-03-15T13:52:32.102Z,2.00
2023-03-15T13:55:00.579Z,1.83
2023-03-15T13:57:28.084Z,1.83
2023-03-15T13:59:59.470Z,1.93
2023-03-15T14:02:33.335Z,2.17
2023-03-15T14:05:05.231Z,2.10
2023-03-15T14:07:36.014Z,1.77
2023-03-15T14:10:11.720Z,1.67
2023-03-15T14:12:39.125Z,1.93
2023-03-15T14:15:14.951Z,2.00
2023-03-15T14:17:52.004Z,1.90
2023-03-15T14:20:25.468Z,2.00
2023-03-15T14:22:52.930Z,1.90
2023-03-15T14:25:22.105Z,2.00
2023-03-15T14:27:49.684Z,2.10
2023-03-15T14:30:21.776Z,1.80
2023-03-15T14:32:53.266Z,2.17
2023-03-15T14:35:23.369Z,2.30
2023-03-15T14:38:01.236Z,1.30
2023-03-15T14:40:30.174Z,1.80
2023-03-15T14:42:57.601Z,1.80
2023-03-15T14:45:25.382Z,1.43
2023-03-15T14:47:57.108Z,1.83
2023-03-15T14:50:27.729Z,1.80
2023-03-15T14:52:55.365Z,1.70
2023-03-15T14:55:25.574Z,1.50
2023-03-15T14:57:53.436Z,1.43
2023-03-15T15:00:21.108Z,1.43
2023-03-15T15:02:49.648Z,1.00
2023-03-15T15:05:20.818Z,1.30
2023-03-15T15:07:50.048Z,1.20
2023-03-15T15:10:17.675Z,1.40
2023-03-15T15:12:46.711Z,2.00
2023-03-15T15:15:16.803Z,1.40
2023-03-15T15:17:44.336Z,1.50
2023-03-15T15:20:12.892Z,1.80
2023-03-15T15:22:41.072Z,1.40
2023-03-15T15:25:14.412Z,1.43
2023-03-15T15:27:42.045Z,1.10
2023-03-15T15:30:11.883Z,1.50
2023-03-15T15:32:45.470Z,1.50
2023-03-15T15:35:13.918Z,1.33
2023-03-15T15:37:41.575Z,1.40
2023-03-15T15:40:12.978Z,1.40
2023-03-15T15:42:41.715Z,1.87
2023-03-15T15:45:11.718Z,2.00
2023-03-15T15:47:39.218Z,2.13
2023-03-15T15:50:07.411Z,2.43
2023-03-15T15:52:35.114Z,1.93
2023-03-15T15:55:02.744Z,2.00
2023-03-15T15:57:30.193Z,1.70
2023-03-15T15:59:58.914Z,2.33
2023-03-15T16:02:26.372Z,2.03
2023-03-15T16:04:54.930Z,1.73
2023-03-15T16:07:22.356Z,1.90
2023-03-15T16:09:54.045Z,1.60
2023-03-15T16:12:23.437Z,2.10
2023-03-15T16:14:50.916Z,1.97
2023-03-15T16:17:21.504Z,2.00
2023-03-15T16:19:49.112Z,2.03
2023-03-15T16:22:16.868Z,2.00
2023-03-15T16:24:46.292Z,2.07
2023-03-15T16:27:15.320Z,1.73
2023-03-15T16:29:44.264Z,1.80
2023-03-15T16:32:20.596Z,1.90
2023-03-15T16:34:52.482Z,1.50
2023-03-15T16:37:22.701Z,1.90
2023-03-15T16:39:51.156Z,1.97
2023-03-15T16:42:19.284Z,1.90
2023-03-15T16:44:46.757Z,2.00
2023-03-15T16:47:14.410Z,1.87
2023-03-15T16:49:41.825Z,1.90
2023-03-15T16:52:12.221Z,1.90
2023-03-15T16:54:41.606Z,1.90
2023-03-15T16:57:12.475Z,2.20
2023-03-15T16:59:39.907Z,2.20
2023-03-15T17:02:15.515Z,1.80
2023-03-15T17:04:43.053Z,2.10
2023-03-15T17:07:14.370Z,1.70
2023-03-15T17:09:43.011Z,1.93
2023-03-15T17:12:13.857Z,2.17
2023-03-15T17:14:41.772Z,1.83
2023-03-15T17:17:09.278Z,1.97
2023-03-15T17:19:37.071Z,1.87
2023-03-15T17:22:04.693Z,2.00
2023-03-15T17:24:33.599Z,1.60
2023-03-15T17:27:01.139Z,1.90
2023-03-15T17:29:28.642Z,1.90
2023-03-15T17:31:56.269Z,1.93
2023-03-15T17:34:26.810Z,1.83
2023-03-15T17:36:55.925Z,1.90
2023-03-15T17:39:23.334Z,1.97
2023-03-15T17:41:52.445Z,1.80
2023-03-15T17:44:19.911Z,2.00
2023-03-15T17:46:47.332Z,1.87
2023-03-15T17:49:16.313Z,1.70
2023-03-15T17:51:43.760Z,1.70
2023-03-15T17:54:14.869Z,2.03
2023-03-15T17:56:42.351Z,1.90
2023-03-15T17:59:14.531Z,1.90
2023-03-15T18:01:43.486Z,1.47
2023-03-15T18:04:11.908Z,1.80
2023-03-15T18:06:39.661Z,1.83
2023-03-15T18:09:07.458Z,1.93
2023-03-15T18:11:35.906Z,1.80
2023-03-15T18:14:03.811Z,2.00
2023-03-15T18:16:32.943Z,1.67
2023-03-15T18:19:00.413Z,2.30
2023-03-15T18:21:28.292Z,2.30
2023-03-15T18:23:55.957Z,2.00
2023-03-15T18:26:23.694Z,2.40
2023-03-15T18:28:51.471Z,2.50
2023-03-15T18:31:19.883Z,2.70
2023-03-15T18:33:48.657Z,2.43
2023-03-15T18:36:16.043Z,2.50
2023-03-15T18:38:43.610Z,2.20
2023-03-15T18:41:13.628Z,1.70
2023-03-15T18:43:42.009Z,2.00
2023-03-15T18:46:09.907Z,2.30
2023-03-15T18:48:40.718Z,2.00
2023-03-15T18:51:12.351Z,1.90
2023-03-15T18:53:39.943Z,2.00
2023-03-15T18:56:07.861Z,2.00
2023-03-15T18:58:35.257Z,2.50
2023-03-15T19:01:02.812Z,2.50
2023-03-15T19:03:30.406Z,2.50
2023-03-15T19:05:59.397Z,2.70
2023-03-15T19:08:28.173Z,2.50
2023-03-15T19:10:58.493Z,2.07
2023-03-15T19:13:25.939Z,2.00
2023-03-15T19:15:53.422Z,2.30
2023-03-15T19:18:21.684Z,2.23
2023-03-15T19:20:49.185Z,1.93
2023-03-15T19:23:16.724Z,2.40
2023-03-15T19:25:45.609Z,2.40
2023-03-15T19:28:13.986Z,2.30
2023-03-15T19:30:41.504Z,2.70
2023-03-15T19:33:09.139Z,2.17
2023-03-15T19:35:36.837Z,2.50
2023-03-15T19:38:04.639Z,2.87
2023-03-15T19:40:32.270Z,2.33
2023-03-15T19:43:01.143Z,2.80
2023-03-15T19:45:28.604Z,2.70
2023-03-15T19:47:56.007Z,2.90
2023-03-15T19:50:23.477Z,3.27
2023-03-15T19:52:50.862Z,3.87
2023-03-15T19:55:19.740Z,3.70
2023-03-15T19:57:47.474Z,3.20
2023-03-15T20:00:19.120Z,3.23
2023-03-15T20:02:47.579Z,3.50
2023-03-15T20:05:15.957Z,3.57
2023-03-15T20:07:43.890Z,3.50
2023-03-15T20:10:12.339Z,3.63
2023-03-15T20:12:42.234Z,3.70
2023-03-15T20:15:11.044Z,3.77
2023-03-15T20:17:40.173Z,3.17
2023-03-15T20:20:10.187Z,3.50
2023-03-15T20:22:39.906Z,3.80
2023-03-15T20:25:08.855Z,3.50
2023-03-15T20:27:37.027Z,3.80
2023-03-15T20:30:04.875Z,3.50
2023-03-15T20:32:32.430Z,3.40
2023-03-15T20:35:02.174Z,3.23
2023-03-15T20:37:31.096Z,3.20
2023-03-15T20:39:58.622Z,3.50
2023-03-15T20:42:26.265Z,3.03
2023-03-15T20:44:53.777Z,2.90
2023-03-15T20:47:21.263Z,3.40
2023-03-15T20:49:49.045Z,3.60
2023-03-15T20:52:17.873Z,3.30
2023-03-15T20:54:45.292Z,3.23
2023-03-15T20:57:12.747Z,3.90
2023-03-15T20:59:40.533Z,3.70
2023-03-15T21:02:08.213Z,3.40
2023-03-15T21:04:35.998Z,3.60
2023-03-15T21:07:04.351Z,3.80
2023-03-15T21:09:33.551Z,4.00
2023-03-15T21:12:01.209Z,3.90
2023-03-15T21:14:28.730Z,4.03
2023-03-15T21:16:56.224Z,4.03
2023-03-15T21:19:24.813Z,3.90
2023-03-15T21:21:52.356Z,4.00
2023-03-15T21:24:19.880Z,4.23
2023-03-15T21:26:54.335Z,4.00
2023-03-15T21:29:23.421Z,3.50
2023-03-15T21:31:50.885Z,3.73
2023-03-15T21:34:18.401Z,3.87
2023-03-15T21:36:45.869Z,3.33
2023-03-15T21:39:13.445Z,3.70
2023-03-15T21:41:40.866Z,4.00
2023-03-15T21:44:09.775Z,3.67
2023-03-15T21:46:37.282Z,4.13
2023-03-15T21:49:05.304Z,4.00
2023-03-15T21:51:34.078Z,4.27
2023-03-15T21:54:02.059Z,4.37
2023-03-15T21:56:29.537Z,4.00
2023-03-15T21:58:56.987Z,4.27
2023-03-15T22:01:25.872Z,3.87
2023-03-15T22:03:54.680Z,4.27
2023-03-15T22:06:22.615Z,4.60
2023-03-15T22:08:50.779Z,4.37
2023-03-15T22:11:18.216Z,4.37
2023-03-15T22:13:45.773Z,3.80
2023-03-15T22:16:13.365Z,4.60
2023-03-15T22:18:42.228Z,4.50
2023-03-15T22:21:09.690Z,4.13
2023-03-15T22:23:37.476Z,4.57
2023-03-15T22:26:04.952Z,3.60
2023-03-15T22:28:33.087Z,4.27
2023-03-15T22:31:01.619Z,4.57
2023-03-15T22:33:29.154Z,4.30
2023-03-15T22:35:58.590Z,4.50
2023-03-15T22:38:26.871Z,4.27
2023-03-15T22:41:00.911Z,4.67
2023-03-15T22:43:28.477Z,3.93
2023-03-15T22:45:55.993Z,3.97
2023-03-15T22:48:23.867Z,3.37
2023-03-15T22:50:58.077Z,4.10
2023-03-15T22:53:25.780Z,4.03
2023-03-15T22:55:53.195Z,3.67
2023-03-15T22:58:20.617Z,4.30
2023-03-15T23:00:48.099Z,3.80
2023-03-15T23:03:16.075Z,3.90
2023-03-15T23:05:43.584Z,4.50
2023-03-15T23:08:12.384Z,4.50
2023-03-15T23:10:39.859Z,4.30
2023-03-15T23:13:07.479Z,4.60
2023-03-15T23:15:34.869Z,4.00
2023-03-15T23:18:02.333Z,4.13
2023-03-15T23:20:30.211Z,4.20
2023-03-15T23:22:58.205Z,3.90
2023-03-15T23:25:28.780Z,3.97
2023-03-15T23:27:56.332Z,3.90
2023-03-15T23:30:23.697Z,4.07
2023-03-15T23:32:57.281Z,4.00
2023-03-15T23:35:24.876Z,4.07
2023-03-15T23:37:53.071Z,3.60
2023-03-15T23:40:20.979Z,3.90
2023-03-15T23:42:58.635Z,3.70
2023-03-15T23:45:27.712Z,4.10
2023-03-15T23:47:55.397Z,3.70
2023-03-15T23:50:25.723Z,4.00
2023-03-15T23:52:54.520Z,3.73
2023-03-15T23:55:22.285Z,4.00
2023-03-15T23:57:51.112Z,3.73
